Armorel, Arkansas
Current Conditions -  °F | °C
As of 10:53 PM on Friday 31 Oct 2014 (Local Time) from KHKA Reporting Station
Clear Clear  
Wind Chill: 30°   Ceiling: Unl
Heat Index: 37°   Visibility: 10mi
Dew Point: 28°   Wind: 10mph
Humidity: 70%   Direction: 350°N
Pressure: 30.34"   Gusts: NA
Location:  35.92°N, 89.8°W
Report Text: KHKA 010353Z AUTO 35009KT 10SM CLR 03/M02 A3034 RMK AO2 SLP273 T00281022
Loading
Personal Weather Stations






























Interactive Weather Map
Tropical Storm Tracking
New forecast layout! Learn more

10-Day Weather Forecast

Advertisements
Track Severe Weather on mobile